Time;durP1;ratioP1;P1;durP2;ratioP2;P2;SDS_P1;SDS_P2;PMS_P1;PMS_P2;Temp;Humidity;BMP_temperature;BMP_pressure;BME280_temperature;BME280_humidity;BME280_pressure;Samples;Min_cycle;Max_cycle;Signal;HPM_P1;HPM_P2
2022/05/22 00:00:14;;;;;;;3.55;2.42;;;10.90;99.90;;;;;;6255801;22;20047;-87
2022/05/22 00:03:04;;;;;;;3.50;2.70;;;11.00;99.90;;;;;;6277555;22;20039;-87
2022/05/22 00:05:51;;;;;;;10.00;3.03;;;11.10;99.90;;;;;;6256028;22;20150;-87
2022/05/22 00:08:41;;;;;;;5.07;2.85;;;11.00;99.90;;;;;;6274666;22;20070;-86
2022/05/22 00:11:28;;;;;;;4.05;2.70;;;11.00;99.90;;;;;;6252525;22;20023;-87
2022/05/22 00:14:18;;;;;;;8.30;2.95;;;10.90;99.90;;;;;;6276869;22;20019;-87
2022/05/22 00:17:06;;;;;;;5.50;2.95;;;10.80;99.90;;;;;;6253313;22;20062;-86
2022/05/22 00:19:54;;;;;;;6.43;2.90;;;10.60;99.90;;;;;;6276281;22;20031;-85
2022/05/22 00:22:44;;;;;;;6.18;2.65;;;10.50;99.90;;;;;;6278553;22;20024;-85
2022/05/22 00:25:33;;;;;;;6.20;2.42;;;10.30;99.90;;;;;;6277643;22;20332;-87
2022/05/22 00:28:23;;;;;;;3.97;2.65;;;10.30;99.90;;;;;;6278337;22;20019;-88
2022/05/22 00:31:10;;;;;;;4.95;2.63;;;10.30;99.90;;;;;;6277402;22;20019;-86
2022/05/22 00:33:57;;;;;;;5.28;2.70;;;10.20;99.90;;;;;;6277771;22;20032;-86
2022/05/22 00:36:45;;;;;;;7.43;3.15;;;10.10;99.90;;;;;;6277523;22;20028;-86
2022/05/22 00:39:33;;;;;;;6.10;2.97;;;10.10;99.90;;;;;;6277995;22;20105;-86
2022/05/22 00:42:25;;;;;;;5.90;3.08;;;10.20;99.90;;;;;;6256264;22;20028;-87
2022/05/22 00:45:12;;;;;;;5.75;3.28;;;10.30;99.90;;;;;;6278771;22;20102;-85
2022/05/22 00:47:59;;;;;;;3.13;2.65;;;10.30;99.90;;;;;;6277033;22;20069;-86
2022/05/22 00:50:47;;;;;;;3.80;2.67;;;10.30;99.90;;;;;;6279016;22;20031;-88
2022/05/22 00:53:39;;;;;;;5.53;2.88;;;10.30;99.90;;;;;;6255255;22;20097;-88
2022/05/22 00:56:35;;;;;;;6.53;3.55;;;10.20;99.90;;;;;;6256971;22;20358;-88
2022/05/22 00:59:29;;;;;;;6.38;3.38;;;10.20;99.90;;;;;;6276835;22;20368;-87
2022/05/22 01:02:18;;;;;;;4.22;2.95;;;10.10;99.90;;;;;;6256329;22;20054;-88
2022/05/22 01:05:05;;;;;;;7.95;2.97;;;10.10;99.90;;;;;;6255007;22;20058;-87
2022/05/22 01:07:57;;;;;;;4.53;3.35;;;10.00;99.90;;;;;;6277650;22;20105;-87
2022/05/22 01:11:00;;;;;;;12.68;3.33;;;9.90;99.90;;;;;;6277303;22;20145;-87
2022/05/22 01:13:55;;;;;;;4.50;2.80;;;9.80;99.90;;;;;;6257518;22;20027;-88
2022/05/22 01:16:42;;;;;;;6.43;3.53;;;9.60;99.90;;;;;;6277732;22;20081;-86
2022/05/22 01:19:30;;;;;;;5.63;3.22;;;9.70;99.90;;;;;;6279496;22;20028;-88
2022/05/22 01:22:17;;;;;;;4.88;2.70;;;9.60;99.90;;;;;;6279307;22;20357;-88
2022/05/22 01:25:06;;;;;;;3.95;2.65;;;9.50;99.90;;;;;;6279068;22;20039;-88
2022/05/22 01:27:54;;;;;;;4.88;3.15;;;9.50;99.90;;;;;;6281668;22;20024;-88
2022/05/22 01:30:41;;;;;;;4.47;3.28;;;9.50;99.90;;;;;;6280882;22;20086;-87
2022/05/22 01:33:32;;;;;;;6.75;3.78;;;9.40;99.90;;;;;;6278072;22;20060;-88
2022/05/22 01:36:19;;;;;;;5.18;3.22;;;9.40;99.90;;;;;;6279128;22;20077;-86
2022/05/22 01:39:07;;;;;;;7.80;3.85;;;9.60;99.90;;;;;;6277267;22;20115;-84
2022/05/22 01:41:57;;;;;;;7.38;3.85;;;9.70;99.90;;;;;;6278661;22;20330;-85
2022/05/22 01:44:47;;;;;;;6.95;3.60;;;9.60;99.90;;;;;;6279407;22;20327;-86
2022/05/22 01:47:36;;;;;;;7.90;3.75;;;9.60;99.90;;;;;;6276550;22;20062;-86
2022/05/22 01:50:26;;;;;;;5.90;3.47;;;9.50;99.90;;;;;;6276590;22;20020;-86
2022/05/22 01:53:15;;;;;;;6.13;3.45;;;9.50;99.90;;;;;;6281285;22;20062;-86
2022/05/22 01:56:02;;;;;;;5.22;3.50;;;9.40;99.90;;;;;;6288110;22;20346;-85
2022/05/22 01:58:52;;;;;;;7.57;3.33;;;9.50;99.90;;;;;;6279976;22;20081;-85
2022/05/22 02:01:39;;;;;;;5.45;3.28;;;9.40;99.90;;;;;;6278503;22;20165;-84
2022/05/22 02:04:30;;;;;;;6.35;3.72;;;9.40;99.90;;;;;;6277278;22;20024;-87
2022/05/22 02:10:24;;;;;;;7.75;3.13;;;9.20;99.90;;;;;;6277235;22;20051;-87
2022/05/22 02:13:18;;;;;;;12.10;3.78;;;9.10;99.90;;;;;;6278353;22;20103;-87
2022/05/22 02:16:06;;;;;;;3.53;3.15;;;9.10;99.90;;;;;;6277217;22;20118;-86
2022/05/22 02:18:56;;;;;;;9.93;3.45;;;9.30;99.90;;;;;;6279597;22;20077;-87
2022/05/22 02:21:45;;;;;;;5.25;3.25;;;9.40;99.90;;;;;;6279825;22;20333;-86
2022/05/22 02:24:32;;;;;;;4.90;3.47;;;9.40;99.90;;;;;;6254287;22;20383;-86
2022/05/22 02:27:20;;;;;;;8.52;3.85;;;9.50;99.90;;;;;;6280304;22;20085;-88
2022/05/22 02:30:09;;;;;;;4.07;3.05;;;9.50;99.90;;;;;;6277257;22;20019;-85
2022/05/22 02:32:57;;;;;;;6.35;3.17;;;9.50;99.90;;;;;;6255496;22;20090;-85
2022/05/22 02:35:44;;;;;;;3.97;2.60;;;9.50;99.90;;;;;;6277979;22;20073;-86
2022/05/22 02:38:33;;;;;;;5.85;3.15;;;9.50;99.90;;;;;;6277977;22;20089;-86
2022/05/22 02:41:21;;;;;;;9.65;3.47;;;9.40;99.90;;;;;;6277259;22;20036;-85
2022/05/22 02:44:09;;;;;;;8.80;3.08;;;9.50;99.90;;;;;;6258386;22;20099;-87
2022/05/22 02:46:56;;;;;;;3.80;2.83;;;9.40;99.90;;;;;;6286571;22;20058;-86
2022/05/22 02:49:43;;;;;;;5.88;3.10;;;9.30;99.90;;;;;;6291955;22;20020;-85
2022/05/22 02:52:30;;;;;;;4.97;3.00;;;9.20;99.90;;;;;;6291454;22;20024;-87
2022/05/22 02:55:19;;;;;;;9.68;3.35;;;9.20;99.90;;;;;;6269901;22;20083;-84
2022/05/22 02:58:08;;;;;;;6.68;3.35;;;9.10;99.90;;;;;;6299760;22;20129;-87
2022/05/22 03:00:55;;;;;;;4.45;3.28;;;9.20;99.90;;;;;;6287961;22;20031;-85
2022/05/22 03:03:42;;;;;;;8.52;3.42;;;9.20;99.90;;;;;;6289657;22;20069;-85
2022/05/22 03:06:39;;;;;;;5.43;3.33;;;9.20;99.90;;;;;;6268465;22;20071;-83
2022/05/22 03:09:30;;;;;;;7.20;3.00;;;9.20;99.90;;;;;;6278049;22;20020;-85
2022/05/22 03:12:20;;;;;;;6.13;3.90;;;9.20;99.90;;;;;;6251502;22;20099;-83
2022/05/22 03:15:11;;;;;;;6.30;2.92;;;9.20;99.90;;;;;;6249135;22;20019;-85
2022/05/22 03:17:58;;;;;;;5.88;3.45;;;9.20;99.90;;;;;;6272251;22;20040;-85
2022/05/22 03:20:47;;;;;;;5.03;3.78;;;9.10;99.90;;;;;;6272309;22;20028;-84
2022/05/22 03:23:34;;;;;;;8.60;3.83;;;9.10;99.90;;;;;;6273901;22;20137;-84
2022/05/22 03:26:22;;;;;;;6.50;3.67;;;9.10;99.90;;;;;;6252795;22;20110;-84
2022/05/22 03:29:09;;;;;;;5.15;3.80;;;9.10;99.90;;;;;;6273574;22;20342;-85
2022/05/22 03:31:58;;;;;;;6.82;3.90;;;9.10;99.90;;;;;;6272000;22;20450;-83
2022/05/22 03:34:46;;;;;;;5.88;3.42;;;9.10;99.90;;;;;;6272661;22;20027;-86
2022/05/22 03:37:33;;;;;;;7.80;3.67;;;9.00;99.90;;;;;;6276195;22;20023;-87
2022/05/22 03:40:23;;;;;;;5.72;4.00;;;8.90;99.90;;;;;;6272454;22;20023;-82
2022/05/22 03:43:14;;;;;;;8.35;4.32;;;8.90;99.90;;;;;;6273853;22;20027;-83
2022/05/22 03:46:02;;;;;;;6.68;4.10;;;9.00;99.90;;;;;;6272359;22;20487;-85
2022/05/22 03:48:51;;;;;;;9.38;4.75;;;9.10;99.90;;;;;;6274208;22;20042;-86
2022/05/22 03:51:39;;;;;;;7.47;4.20;;;9.10;99.90;;;;;;6274873;22;20424;-83
2022/05/22 03:54:27;;;;;;;9.13;3.95;;;9.10;99.90;;;;;;6272342;22;20034;-82
2022/05/22 03:57:14;;;;;;;5.00;3.60;;;9.20;99.90;;;;;;6274264;22;20043;-86
2022/05/22 04:00:05;;;;;;;5.20;3.78;;;9.10;99.90;;;;;;6252981;22;20031;-83
2022/05/22 04:02:56;;;;;;;6.00;4.05;;;9.10;99.90;;;;;;6273379;22;20059;-86
2022/05/22 04:05:43;;;;;;;5.25;3.70;;;9.10;99.90;;;;;;6273844;22;20023;-86
2022/05/22 04:08:31;;;;;;;5.20;3.78;;;9.00;99.90;;;;;;6274008;22;20051;-87
2022/05/22 04:11:22;;;;;;;7.00;4.10;;;9.00;99.90;;;;;;6274404;22;20465;-86
2022/05/22 04:14:12;;;;;;;7.80;4.10;;;9.00;99.90;;;;;;6251094;22;20099;-85
2022/05/22 04:17:00;;;;;;;4.47;3.63;;;9.10;99.90;;;;;;6274821;22;20578;-87
2022/05/22 04:19:52;;;;;;;6.82;4.10;;;9.10;99.90;;;;;;6250847;22;20435;-88
2022/05/22 04:25:56;;;;;;;7.18;4.07;;;9.20;99.90;;;;;;6272817;22;20085;-83
2022/05/22 04:28:43;;;;;;;7.40;4.18;;;9.40;99.90;;;;;;6251904;22;20390;-86
2022/05/22 04:31:31;;;;;;;7.85;3.88;;;9.50;99.90;;;;;;6250602;22;20020;-87
2022/05/22 04:34:18;;;;;;;5.95;3.20;;;9.60;99.90;;;;;;6273457;22;20486;-86
2022/05/22 04:37:05;;;;;;;5.15;3.42;;;9.50;99.90;;;;;;6275142;22;20070;-86
2022/05/22 04:39:53;;;;;;;6.82;3.40;;;9.60;99.90;;;;;;6274418;22;20051;-86
2022/05/22 04:42:40;;;;;;;7.45;3.58;;;9.60;99.90;;;;;;6275138;22;20027;-86
2022/05/22 04:45:30;;;;;;;7.72;3.42;;;9.70;99.90;;;;;;6273271;22;20414;-87
2022/05/22 04:48:24;;;;;;;12.52;3.90;;;9.80;99.90;;;;;;6273605;22;20028;-85
2022/05/22 04:51:11;;;;;;;7.30;3.35;;;9.90;99.90;;;;;;6251229;22;20043;-85
2022/05/22 04:53:59;;;;;;;6.05;3.38;;;10.10;99.90;;;;;;6282516;22;20035;-86
2022/05/22 04:56:47;;;;;;;6.32;3.05;;;10.20;99.90;;;;;;6267909;22;20068;-88
2022/05/22 04:59:34;;;;;;;5.72;3.03;;;10.30;99.90;;;;;;6287978;22;20071;-84
2022/05/22 05:02:23;;;;;;;5.40;3.30;;;10.40;99.90;;;;;;6286720;22;20039;-85
2022/05/22 05:05:12;;;;;;;4.68;3.20;;;10.50;99.90;;;;;;6263872;22;20023;-86
2022/05/22 05:08:00;;;;;;;3.95;3.10;;;10.60;99.90;;;;;;6271674;22;20035;-85
2022/05/22 05:10:51;;;;;;;10.05;3.20;;;10.70;99.90;;;;;;6291782;22;20020;-85
2022/05/22 05:13:39;;;;;;;5.00;2.90;;;10.80;99.90;;;;;;6294259;22;20039;-80
2022/05/22 05:16:26;;;;;;;6.18;3.10;;;10.90;99.90;;;;;;6298532;22;20024;-82
2022/05/22 05:19:13;;;;;;;9.00;3.10;;;10.90;99.90;;;;;;6287322;22;20031;-85
2022/05/22 05:22:06;;;;;;;6.30;2.83;;;11.00;99.90;;;;;;6288692;22;20047;-84
2022/05/22 05:24:56;;;;;;;3.63;2.63;;;11.10;99.90;;;;;;6262955;22;20111;-83
2022/05/22 05:27:43;;;;;;;4.00;3.00;;;11.10;99.90;;;;;;6280610;22;20049;-84
2022/05/22 05:30:30;;;;;;;5.55;3.08;;;11.20;99.90;;;;;;6280822;22;20024;-84
2022/05/22 05:33:17;;;;;;;5.90;3.03;;;11.30;99.90;;;;;;6255896;22;20020;-87
2022/05/22 05:36:09;;;;;;;5.20;2.83;;;11.50;99.90;;;;;;6255732;22;20098;-86
2022/05/22 05:38:57;;;;;;;5.25;3.00;;;11.70;99.90;;;;;;6276202;22;20103;-84
2022/05/22 05:41:45;;;;;;;3.40;2.50;;;11.90;99.90;;;;;;6273625;22;20046;-85
2022/05/22 05:44:36;;;;;;;6.13;2.88;;;12.00;99.90;;;;;;6275353;22;20019;-83
2022/05/22 05:47:23;;;;;;;5.18;3.08;;;12.10;99.90;;;;;;6254760;22;20031;-85
2022/05/22 05:50:14;;;;;;;4.28;2.42;;;12.30;99.90;;;;;;6277659;22;20430;-86
2022/05/22 05:53:02;;;;;;;6.38;2.78;;;12.40;99.90;;;;;;6265451;22;20023;-84
2022/05/22 05:55:49;;;;;;;6.78;2.75;;;12.50;99.90;;;;;;6285139;22;20115;-85
2022/05/22 05:58:58;;;;;;;5.25;2.55;;;12.70;99.90;;;;;;6283591;22;20429;-83
2022/05/22 06:01:48;;;;;;;4.60;2.35;;;12.90;99.90;;;;;;6285348;22;20058;-83
2022/05/22 06:04:35;;;;;;;2.75;2.08;;;13.10;99.90;;;;;;6258806;22;20048;-83
2022/05/22 06:07:22;;;;;;;4.72;2.03;;;13.40;99.90;;;;;;6287693;22;20089;-83
2022/05/22 06:10:12;;;;;;;3.58;2.53;;;13.60;99.90;;;;;;6261692;22;20419;-86
2022/05/22 06:13:01;;;;;;;5.57;2.47;;;13.90;99.90;;;;;;6254399;22;20577;-85
2022/05/22 06:15:49;;;;;;;4.30;2.17;;;14.20;99.90;;;;;;6274389;22;20027;-86
2022/05/22 06:18:38;;;;;;;4.72;2.17;;;14.50;99.90;;;;;;6273202;22;20043;-85
2022/05/22 06:21:26;;;;;;;3.90;1.90;;;14.80;99.90;;;;;;6275637;22;20604;-86
2022/05/22 06:24:13;;;;;;;5.00;1.80;;;14.80;99.90;;;;;;6274967;22;20019;-85
2022/05/22 06:27:01;;;;;;;2.55;1.67;;;15.10;99.90;;;;;;6271706;22;20051;-84
2022/05/22 06:29:49;;;;;;;3.85;1.70;;;15.20;99.90;;;;;;6277861;22;20039;-88
2022/05/22 06:32:41;;;;;;;7.30;1.85;;;15.30;99.90;;;;;;6256558;22;20028;-88
2022/05/22 06:35:28;;;;;;;4.88;2.10;;;15.50;99.90;;;;;;6277582;22;20089;-84
2022/05/22 06:41:27;;;;;;;3.20;1.55;;;15.80;99.90;;;;;;6277338;22;20046;-87
2022/05/22 06:44:14;;;;;;;3.78;1.70;;;16.00;99.90;;;;;;6277860;22;20131;-85
2022/05/22 06:47:05;;;;;;;5.57;1.77;;;16.20;99.90;;;;;;6280220;22;20107;-87
2022/05/22 06:49:53;;;;;;;2.85;1.42;;;16.30;99.90;;;;;;6275829;22;20023;-84
2022/05/22 06:52:41;;;;;;;3.83;1.75;;;16.60;99.90;;;;;;6275614;22;20028;-86
2022/05/22 06:55:31;;;;;;;4.15;1.50;;;16.90;99.90;;;;;;6277895;22;20028;-87
2022/05/22 06:58:19;;;;;;;3.63;1.58;;;17.20;99.90;;;;;;6258643;22;20023;-84
2022/05/22 07:01:09;;;;;;;3.63;1.30;;;17.50;99.90;;;;;;6277794;22;20044;-84
2022/05/22 07:04:02;;;;;;;3.33;1.20;;;17.80;99.90;;;;;;6284278;22;20093;-85
2022/05/22 07:06:52;;;;;;;4.50;1.10;;;17.80;99.90;;;;;;6286484;22;20066;-85
2022/05/22 07:09:39;;;;;;;4.45;1.35;;;18.20;99.90;;;;;;6285987;22;20085;-83
2022/05/22 07:12:29;;;;;;;4.13;1.40;;;18.60;97.70;;;;;;6265439;22;20038;-77
2022/05/22 07:15:16;;;;;;;2.53;1.52;;;18.60;95.80;;;;;;6293550;22;20008;-83
2022/05/22 07:18:04;;;;;;;2.60;1.25;;;18.20;96.00;;;;;;6282956;22;20019;-86
2022/05/22 07:20:52;;;;;;;2.50;1.50;;;18.20;96.60;;;;;;6264351;22;20019;-82
2022/05/22 07:23:39;;;;;;;2.08;1.30;;;18.30;95.70;;;;;;6287154;22;20027;-86
2022/05/22 07:26:27;;;;;;;3.08;0.98;;;18.60;96.10;;;;;;6277787;22;20026;-85
2022/05/22 07:29:14;;;;;;;3.42;1.40;;;18.60;94.20;;;;;;6251191;22;20024;-84
2022/05/22 07:32:04;;;;;;;2.17;1.23;;;18.80;93.20;;;;;;6271647;22;20081;-85
2022/05/22 07:34:52;;;;;;;4.88;1.55;;;18.90;92.90;;;;;;6274774;22;20345;-85
2022/05/22 07:37:41;;;;;;;2.42;1.25;;;19.20;95.10;;;;;;6271985;22;20103;-84
2022/05/22 07:40:29;;;;;;;2.67;1.10;;;19.60;91.90;;;;;;6273105;22;20030;-87
2022/05/22 07:43:19;;;;;;;3.08;1.10;;;19.70;89.60;;;;;;6272002;22;20027;-89
2022/05/22 07:46:13;;;;;;;3.30;1.27;;;19.70;90.70;;;;;;6272211;22;20106;-85
2022/05/22 07:49:00;;;;;;;3.92;1.55;;;19.60;91.20;;;;;;6253576;22;20165;-85
2022/05/22 07:51:50;;;;;;;2.05;1.05;;;19.70;85.80;;;;;;6274698;22;20066;-84
2022/05/22 07:54:57;;;;;;;2.45;1.33;;;20.00;85.40;;;;;;6275873;22;20055;-87
2022/05/22 07:57:47;;;;;;;2.65;1.08;;;20.60;86.90;;;;;;6271260;22;20489;-83
2022/05/22 08:00:34;;;;;;;3.03;0.98;;;21.00;81.90;;;;;;6249790;22;20023;-85
2022/05/22 08:03:24;;;;;;;2.60;1.00;;;21.60;77.80;;;;;;6274427;22;20055;-83
2022/05/22 08:06:12;;;;;;;2.42;1.10;;;22.40;71.90;;;;;;6274103;22;20118;-85
2022/05/22 08:09:01;;;;;;;2.95;0.98;;;22.30;69.90;;;;;;6274257;22;20467;-87
2022/05/22 08:11:52;;;;;;;3.15;1.35;;;22.50;71.50;;;;;;6273817;22;20387;-82
2022/05/22 08:14:41;;;;;;;2.33;1.10;;;22.00;69.00;;;;;;6277011;22;20035;-86
2022/05/22 08:17:36;;;;;;;4.10;2.03;;;22.00;71.90;;;;;;6276147;22;20107;-85
2022/05/22 08:20:24;;;;;;;2.13;1.40;;;22.50;68.70;;;;;;6275568;22;20023;-87
2022/05/22 08:23:20;;;;;;;2.13;0.90;;;23.20;70.90;;;;;;6274578;22;20023;-85
2022/05/22 08:26:10;;;;;;;3.95;1.38;;;23.40;64.50;;;;;;6274899;22;20028;-86
2022/05/22 08:29:01;;;;;;;2.00;1.08;;;23.90;63.10;;;;;;6254076;22;20055;-82
2022/05/22 08:31:48;;;;;;;1.92;0.98;;;24.30;67.80;;;;;;6276306;22;20046;-89
2022/05/22 08:34:38;;;;;;;1.15;0.80;;;24.80;58.00;;;;;;6271685;22;20326;-86
2022/05/22 08:37:29;;;;;;;5.03;1.10;;;24.30;57.30;;;;;;6273805;22;20571;-84
2022/05/22 08:40:22;;;;;;;1.45;0.90;;;23.50;64.60;;;;;;6252436;22;20047;-86
2022/05/22 08:43:18;;;;;;;2.72;1.20;;;24.00;64.00;;;;;;6280067;22;20042;-84
2022/05/22 08:46:14;;;;;;;2.75;1.13;;;24.40;58.60;;;;;;6273595;22;20063;-87
2022/05/22 08:49:23;;;;;;;0.82;0.70;;;24.40;55.50;;;;;;6272802;22;20024;-88
2022/05/22 08:52:34;;;;;;;3.08;0.95;;;24.60;57.10;;;;;;6251054;22;20348;-86
2022/05/22 08:59:16;;;;;;;3.40;1.10;;;25.70;59.80;;;;;;6279002;22;20416;-84
2022/05/22 09:02:57;;;;;;;2.88;0.90;;;26.60;55.00;;;;;;6278343;22;20034;-86
2022/05/22 09:05:48;;;;;;;4.25;1.08;;;27.50;55.00;;;;;;6155742;23;20021;-86
2022/05/22 09:08:43;;;;;;;1.85;0.75;;;26.10;51.40;;;;;;6252064;22;20031;-85
2022/05/22 09:12:03;;;;;;;2.17;0.80;;;26.30;53.70;;;;;;6274536;22;20027;-87
2022/05/22 09:15:34;;;;;;;2.20;1.02;;;27.30;50.00;;;;;;6274659;22;20499;-86
2022/05/22 09:18:37;;;;;;;1.35;0.77;;;26.70;50.10;;;;;;6276680;22;20027;-86
2022/05/22 09:21:59;;;;;;;4.38;1.23;;;26.60;48.60;;;;;;6276311;22;20081;-88
2022/05/22 09:25:13;;;;;;;2.10;0.98;;;26.10;50.20;;;;;;6276371;22;20068;-85
2022/05/22 09:28:22;;;;;;;5.85;1.10;;;27.30;52.80;;;;;;6283382;22;20108;-87
2022/05/22 09:31:33;;;;;;;;;;;28.40;46.90;;;;;;6280941;22;20715;-84
2022/05/22 09:34:29;;;;;;;1.30;0.60;;;27.00;44.40;;;;;;6250775;22;20472;-86
2022/05/22 09:37:25;;;;;;;1.63;0.95;;;25.90;46.70;;;;;;6276398;22;20113;-85
2022/05/22 09:40:37;;;;;;;3.33;0.70;;;26.30;46.90;;;;;;6250443;22;20027;-87
2022/05/22 09:43:46;;;;;;;1.13;0.80;;;27.10;46.10;;;;;;6278345;22;20020;-84
2022/05/22 09:46:52;;;;;;;2.35;0.60;;;27.40;43.60;;;;;;6273709;22;20129;-85
2022/05/22 09:50:27;;;;;;;1.23;0.70;;;27.30;42.00;;;;;;6279555;22;20044;-87
2022/05/22 09:53:37;;;;;;;2.53;0.65;;;28.00;42.90;;;;;;6152143;23;20120;-85
2022/05/22 09:56:50;;;;;;;1.90;0.52;;;29.00;45.00;;;;;;6151977;23;20147;-84
2022/05/22 09:59:52;;;;;;;2.17;0.90;;;29.30;42.70;;;;;;6276515;22;20023;-87
2022/05/22 10:03:08;;;;;;;1.83;0.57;;;30.00;43.20;;;;;;6273615;22;20027;-85
2022/05/22 10:06:05;;;;;;;2.95;0.88;;;29.60;39.00;;;;;;6274673;22;20030;-87
2022/05/22 10:09:04;;;;;;;2.28;0.60;;;28.20;42.90;;;;;;6276276;22;20039;-85
2022/05/22 10:12:13;;;;;;;2.40;0.80;;;27.40;43.40;;;;;;6271745;22;20093;-83
2022/05/22 10:15:40;;;;;;;1.65;0.70;;;28.10;41.40;;;;;;6272568;22;20047;-85
2022/05/22 10:18:57;;;;;;;2.17;0.70;;;28.70;40.90;;;;;;6257108;22;20084;-85
2022/05/22 10:21:57;;;;;;;2.72;0.63;;;28.60;40.50;;;;;;6187256;22;20387;-85
2022/05/22 10:25:26;;;;;;;1.08;0.60;;;28.00;42.70;;;;;;6274467;22;20023;-88
2022/05/22 10:28:23;;;;;;;1.45;0.70;;;27.60;44.20;;;;;;6260588;22;20035;-84
2022/05/22 10:31:39;;;;;;;1.83;0.77;;;27.70;43.00;;;;;;6279812;22;20057;-84
2022/05/22 10:34:39;;;;;;;1.85;0.60;;;27.80;45.30;;;;;;6274302;22;20039;-85
2022/05/22 10:37:36;;;;;;;1.13;0.73;;;28.40;43.70;;;;;;6273244;22;20069;-86
2022/05/22 10:40:25;;;;;;;4.00;0.70;;;28.60;44.10;;;;;;6273807;22;20024;-86
2022/05/22 10:43:12;;;;;;;2.03;0.70;;;29.20;45.50;;;;;;6250267;22;20045;-88
2022/05/22 10:46:01;;;;;;;2.15;0.60;;;29.80;45.70;;;;;;6274355;22;20594;-86
2022/05/22 10:48:55;;;;;;;1.67;0.57;;;30.10;39.40;;;;;;6273917;22;20024;-89
2022/05/22 10:51:57;;;;;;;1.83;0.57;;;30.40;41.40;;;;;;6273608;22;20067;-86
2022/05/22 10:54:51;;;;;;;1.90;0.63;;;31.30;36.30;;;;;;6272702;22;20165;-86
2022/05/22 10:57:38;;;;;;;1.42;0.55;;;31.50;41.00;;;;;;6276222;22;20387;-90
2022/05/22 11:00:26;;;;;;;1.90;0.68;;;32.50;38.20;;;;;;6274517;22;20023;-84
2022/05/22 11:03:14;;;;;;;2.78;0.70;;;32.30;35.40;;;;;;6274981;22;20073;-85
2022/05/22 11:06:20;;;;;;;1.55;0.60;;;32.00;34.20;;;;;;6271889;22;20031;-83
2022/05/22 11:09:08;;;;;;;2.20;0.90;;;31.20;34.30;;;;;;6277629;22;20031;-84
2022/05/22 11:12:07;;;;;;;3.70;0.80;;;30.80;40.70;;;;;;6254128;22;20023;-84
2022/05/22 11:15:09;;;;;;;2.13;0.65;;;31.30;39.30;;;;;;6274974;22;20113;-88
2022/05/22 11:18:20;;;;;;;1.25;0.80;;;32.00;35.90;;;;;;6278864;22;20043;-89
2022/05/22 11:21:21;;;;;;;0.85;0.60;;;32.20;34.20;;;;;;6279666;22;20296;-87
2022/05/22 11:24:30;;;;;;;1.35;0.50;;;32.80;34.30;;;;;;6257615;22;20085;-84
2022/05/22 11:27:41;;;;;;;1.25;0.70;;;32.80;30.80;;;;;;6259185;22;20432;-88
2022/05/22 11:30:32;;;;;;;2.47;0.70;;;31.50;34.60;;;;;;6275936;22;20034;-86
2022/05/22 11:33:46;;;;;;;1.95;0.60;;;30.80;37.50;;;;;;6274627;22;20028;-87
2022/05/22 11:36:55;;;;;;;3.42;0.60;;;31.40;37.30;;;;;;6265375;22;20075;-85
2022/05/22 11:40:26;;;;;;;1.40;0.60;;;32.00;36.70;;;;;;6268003;22;20135;-86
2022/05/22 11:43:46;;;;;;;1.35;0.60;;;32.60;30.90;;;;;;6242061;22;20074;-85
2022/05/22 11:47:04;;;;;;;1.88;0.80;;;32.10;34.90;;;;;;6289792;22;20012;-84
2022/05/22 11:49:55;;;;;;;2.47;0.95;;;32.60;34.00;;;;;;6294611;22;20043;-84
2022/05/22 11:53:00;;;;;;;2.22;0.77;;;33.00;34.10;;;;;;6293193;22;20032;-84
2022/05/22 11:56:16;;;;;;;2.20;0.60;;;32.10;31.00;;;;;;6297478;22;20060;-78
2022/05/22 11:59:27;;;;;;;3.10;0.90;;;31.30;33.50;;;;;;6288636;22;20145;-84
2022/05/22 12:02:25;;;;;;;3.40;0.70;;;31.60;34.10;;;;;;6288066;22;20027;-83
2022/05/22 12:05:38;;;;;;;2.13;0.70;;;31.80;34.90;;;;;;6290301;22;20034;-83
2022/05/22 12:08:37;;;;;;;2.00;0.60;;;32.40;29.80;;;;;;6283993;22;20034;-89
2022/05/22 12:11:56;;;;;;;2.55;0.68;;;30.70;31.40;;;;;;6280679;22;20331;-88
2022/05/22 12:15:08;;;;;;;2.08;0.85;;;30.60;34.10;;;;;;6227779;22;20032;-88
2022/05/22 12:18:15;;;;;;;1.58;0.85;;;31.80;32.80;;;;;;6286939;22;20111;-86
2022/05/22 12:21:13;;;;;;;2.85;0.90;;;32.00;33.70;;;;;;6287316;22;20048;-83
2022/05/22 12:24:14;;;;;;;0.93;0.70;;;32.70;34.50;;;;;;6288118;22;20032;-87
2022/05/22 12:27:16;;;;;;;3.85;0.75;;;33.80;31.70;;;;;;6286023;22;20109;-84
2022/05/22 12:30:10;;;;;;;;;;;33.70;30.10;;;;;;6296324;22;20011;-78
2022/05/22 12:33:00;;;;;;;0.98;0.68;;;32.80;29.10;;;;;;6267270;22;19961;-79
2022/05/22 12:35:48;;;;;;;2.05;0.98;;;31.30;31.40;;;;;;6284015;22;20024;-87
2022/05/22 12:38:46;;;;;;;4.20;0.80;;;32.30;32.50;;;;;;6284942;22;20031;-90
2022/05/22 12:42:08;;;;;;;2.20;0.70;;;32.70;29.60;;;;;;6283976;22;20027;-88
2022/05/22 12:44:55;;;;;;;1.50;0.60;;;31.90;34.40;;;;;;6258440;22;20394;-91
2022/05/22 12:47:51;;;;;;;4.00;0.60;;;32.70;32.50;;;;;;6272647;22;20058;-87
2022/05/22 12:50:51;;;;;;;0.77;0.60;;;33.20;31.00;;;;;;6273165;22;20068;-87
2022/05/22 12:53:42;;;;;;;1.55;0.70;;;33.50;30.80;;;;;;6275949;22;20027;-88
2022/05/22 12:56:29;;;;;;;1.98;0.88;;;32.60;29.70;;;;;;6269486;22;20020;-88
2022/05/22 12:59:26;;;;;;;1.38;0.50;;;31.40;35.40;;;;;;6270245;22;20035;-86
2022/05/22 13:02:43;;;;;;;2.67;0.47;;;31.40;35.30;;;;;;6270905;22;20639;-89
2022/05/22 13:05:34;;;;;;;1.77;0.73;;;31.70;34.40;;;;;;6270942;22;20096;-86
2022/05/22 13:08:47;;;;;;;1.42;0.77;;;31.40;34.60;;;;;;6270255;22;20031;-84
2022/05/22 13:11:47;;;;;;;2.33;1.02;;;31.60;33.80;;;;;;6248147;22;20047;-87
2022/05/22 13:14:56;;;;;;;3.33;1.00;;;32.70;33.30;;;;;;6252611;22;20089;-87
2022/05/22 13:18:03;;;;;;;1.65;0.90;;;32.40;34.10;;;;;;6248082;22;20027;-84
2022/05/22 13:21:01;;;;;;;1.55;0.70;;;31.90;35.10;;;;;;6268967;22;20028;-86
2022/05/22 13:24:04;;;;;;;1.50;0.70;;;31.40;34.50;;;;;;6268874;22;20019;-87
2022/05/22 13:26:58;;;;;;;1.95;0.77;;;30.70;36.90;;;;;;6272603;22;20073;-87
2022/05/22 13:29:50;;;;;;;1.38;0.82;;;29.90;36.60;;;;;;6270547;22;20055;-86
2022/05/22 13:32:59;;;;;;;2.92;0.88;;;30.50;35.10;;;;;;6270583;22;20028;-86
2022/05/22 13:36:06;;;;;;;3.22;0.70;;;30.00;36.70;;;;;;6270049;22;20020;-83
2022/05/22 13:38:59;;;;;;;1.02;0.65;;;29.60;38.70;;;;;;6271560;22;20406;-86
2022/05/22 13:42:11;;;;;;;1.80;0.80;;;29.00;39.20;;;;;;6269414;22;20023;-85
2022/05/22 13:45:33;;;;;;;2.30;0.55;;;28.50;40.70;;;;;;6251148;22;20024;-86
2022/05/22 13:54:24;;;;;;;3.42;1.17;;;27.00;43.50;;;;;;5098869;28;20113;-85
2022/05/22 13:57:22;;;;;;;2.13;0.63;;;26.90;43.00;;;;;;5086902;28;20133;-88
2022/05/22 14:00:23;;;;;;;2.40;0.98;;;27.40;44.90;;;;;;5081905;28;20048;-87
2022/05/22 14:03:30;;;;;;;1.88;0.93;;;27.10;43.30;;;;;;5094498;28;20067;-85
2022/05/22 14:06:27;;;;;;;1.25;0.98;;;27.00;44.80;;;;;;5101115;28;20043;-87
2022/05/22 14:09:30;;;;;;;4.38;0.98;;;27.10;46.60;;;;;;5086262;28;20044;-85
2022/05/22 14:12:26;;;;;;;2.90;1.10;;;27.40;45.50;;;;;;5108311;28;20064;-84
2022/05/22 14:15:14;;;;;;;2.25;1.20;;;27.00;45.00;;;;;;5102908;28;20059;-85
2022/05/22 14:18:14;;;;;;;1.38;1.02;;;26.40;44.30;;;;;;5091286;28;20044;-87
2022/05/22 14:21:08;;;;;;;2.03;0.85;;;26.00;47.20;;;;;;5095747;28;20106;-86
2022/05/22 14:27:37;;;;;;;2.97;0.88;;;25.90;45.80;;;;;;5099220;28;20070;-86
2022/05/22 14:30:31;;;;;;;1.88;0.90;;;25.90;47.20;;;;;;5074901;28;20045;-84
2022/05/22 14:33:20;;;;;;;4.30;1.02;;;26.10;43.60;;;;;;5074452;28;20040;-85
2022/05/22 14:36:09;;;;;;;3.88;0.98;;;25.90;44.20;;;;;;5088981;28;20735;-85
2022/05/22 14:38:57;;;;;;;1.02;0.80;;;26.30;46.90;;;;;;5094328;28;20036;-86
2022/05/22 14:41:48;;;;;;;4.45;1.25;;;27.40;45.00;;;;;;5080143;28;20091;-85
2022/05/22 14:44:37;;;;;;;1.67;0.82;;;28.20;44.70;;;;;;5075404;28;20055;-89
2022/05/22 14:47:28;;;;;;;3.92;0.90;;;28.60;43.50;;;;;;5080234;28;20438;-86
2022/05/22 14:50:19;;;;;;;2.78;1.27;;;28.50;42.70;;;;;;5079920;28;20193;-85
2022/05/22 14:53:11;;;;;;;2.33;1.02;;;28.50;40.90;;;;;;5084549;28;20044;-88
2022/05/22 14:56:23;;;;;;;2.38;0.90;;;28.50;44.30;;;;;;5075196;28;20045;-85
2022/05/22 14:59:15;;;;;;;2.15;1.08;;;27.70;43.00;;;;;;5077974;28;20671;-87
2022/05/22 15:02:03;;;;;;;;;;;27.00;43.40;;;;;;5074931;28;20440;-85
2022/05/22 15:04:54;;;;;;;1.45;0.93;;;26.30;44.20;;;;;;5064409;28;20324;-85
2022/05/22 15:08:00;;;;;;;3.50;1.20;;;25.80;48.20;;;;;;5080663;28;20080;-85
2022/05/22 15:10:50;;;;;;;2.88;1.10;;;25.50;46.50;;;;;;5070758;28;20193;-85
2022/05/22 15:14:00;;;;;;;3.65;1.27;;;25.00;49.60;;;;;;5072865;28;20144;-84
2022/05/22 15:16:53;;;;;;;3.30;1.20;;;24.60;52.20;;;;;;5072939;28;20135;-87
2022/05/22 15:19:49;;;;;;;4.00;1.73;;;24.40;50.10;;;;;;5071648;28;20055;-86
2022/05/22 15:25:54;;;;;;;3.25;1.55;;;24.10;52.50;;;;;;5077494;28;20103;-86
2022/05/22 15:28:41;;;;;;;6.25;1.55;;;24.10;49.80;;;;;;5073497;28;20045;-85
2022/05/22 15:31:32;;;;;;;1.60;0.90;;;24.00;49.90;;;;;;5064707;28;20064;-85
2022/05/22 15:34:23;;;;;;;2.70;1.27;;;23.80;50.60;;;;;;5046118;28;20073;-83
2022/05/22 15:37:19;;;;;;;3.83;1.10;;;23.70;50.60;;;;;;5063569;28;20052;-87